Main page
METAR-TAF:

METAR-TAF

Airports :

Oslo Airport. Gardermoen

Oslo, Norway

latitude: 60-12N, longitude: 011-05E, elevation: 208 m

Current weather observation

The report was made 16 minutes ago, at 16:50 UTC
Wind 3 kt from the West, varying between Southwest and West/Northwest
Temperature 8°C
Humidity 49%
Pressure 1020 hPa
Visibility 10 km or more
no clouds below 1500 m and no cumulonimbus

METAR: ENGM 181650Z 26003KT 230V300 CAVOK 08/M02 Q1020 NOSIG

Time: 19:06 (17:06 UTC)

Forecast

Forecast valid from 18 at 12 UTC to 19 at 12 UTC
Wind 5 kt from the North/Northwest
Visibility 10 km or more
no clouds below 1500 m and no cumulonimbus

TAF: ENGM 1812/1912 33005KT CAVOK

Weather observations and forecasts of more than 4000 airports (METAR and TAF reports).

The available stations are represented by yellow and red dots on the map.

Hover mouse over dot to see the name of the station.

Then click to see weather observations and forecasts.

To change the map : click on the green buttons with a black cross to zoom in, on the green button with a dash to zoom out, or on the green arrows for adjacent maps.


METAR-TAF: